Time;durP1;ratioP1;P1;durP2;ratioP2;P2;SDS_P1;SDS_P2;PMS_P1;PMS_P2;Temp;Humidity;BMP_temperature;BMP_pressure;BME280_temperature;BME280_humidity;BME280_pressure;Samples;Min_cycle;Max_cycle;Signal;HPM_P1;HPM_P2
2021/10/31 00:01:58;;;;;;;3.92;3.72;;;14.00;74.30;;;;;;4968679;28;20035;-85
2021/10/31 00:04:25;;;;;;;4.30;4.10;;;14.00;74.30;;;;;;4968707;28;20028;-85
2021/10/31 00:06:51;;;;;;;4.22;4.03;;;14.00;74.30;;;;;;4970141;28;20038;-85
2021/10/31 00:09:17;;;;;;;4.18;3.97;;;14.00;74.40;;;;;;4973663;28;20030;-85
2021/10/31 00:11:43;;;;;;;4.43;4.22;;;14.00;74.40;;;;;;4973337;28;20038;-85
2021/10/31 00:14:09;;;;;;;4.47;4.28;;;14.00;74.50;;;;;;4971072;28;20035;-85
2021/10/31 00:16:35;;;;;;;4.32;4.13;;;13.90;74.50;;;;;;4971947;28;20049;-85
2021/10/31 00:19:02;;;;;;;4.15;3.95;;;13.90;74.50;;;;;;4970233;28;20023;-85
2021/10/31 00:21:28;;;;;;;3.95;3.75;;;13.90;74.60;;;;;;4969866;28;20046;-85
2021/10/31 00:23:54;;;;;;;4.03;3.83;;;13.90;74.70;;;;;;4973209;28;20039;-85
2021/10/31 00:26:20;;;;;;;4.05;3.85;;;13.90;74.70;;;;;;4973535;28;20035;-85
2021/10/31 00:28:46;;;;;;;4.05;3.85;;;13.90;74.80;;;;;;4972067;28;20045;-84
2021/10/31 00:31:12;;;;;;;4.30;4.10;;;13.80;74.70;;;;;;4950928;28;20027;-85
2021/10/31 00:33:39;;;;;;;4.45;4.25;;;13.80;74.80;;;;;;4962726;28;20050;-85
2021/10/31 00:36:05;;;;;;;4.45;4.25;;;13.80;74.90;;;;;;4971147;28;20035;-85
2021/10/31 00:38:31;;;;;;;4.57;4.38;;;13.80;74.90;;;;;;4989824;28;20034;-85
2021/10/31 00:40:57;;;;;;;4.47;4.28;;;13.80;75.00;;;;;;4970828;28;20047;-85
2021/10/31 00:43:23;;;;;;;4.80;4.60;;;13.70;75.00;;;;;;4972336;28;20042;-85
2021/10/31 00:45:49;;;;;;;4.45;4.25;;;13.70;75.00;;;;;;4968867;28;20030;-85
2021/10/31 00:48:16;;;;;;;4.25;4.05;;;13.70;75.10;;;;;;4971951;28;20031;-85
2021/10/31 00:50:42;;;;;;;5.32;5.13;;;13.70;75.20;;;;;;4954334;28;20039;-85
2021/10/31 00:53:09;;;;;;;4.70;4.50;;;13.60;75.20;;;;;;4952727;28;20042;-85
2021/10/31 00:55:35;;;;;;;5.20;5.00;;;13.60;75.30;;;;;;4953182;28;20047;-85
2021/10/31 00:58:01;;;;;;;4.78;4.57;;;13.60;75.40;;;;;;4971098;28;20026;-84
2021/10/31 01:00:27;;;;;;;5.05;4.75;;;13.50;75.40;;;;;;4971549;28;20412;-84
2021/10/31 01:02:53;;;;;;;4.30;4.10;;;13.60;75.50;;;;;;4972144;28;20043;-84
2021/10/31 01:05:26;;;;;;;3.95;3.75;;;13.50;75.50;;;;;;4972047;28;20043;-84
2021/10/31 01:08:23;;;;;;;4.45;4.25;;;13.50;75.40;;;;;;4971551;28;20035;-85
2021/10/31 01:11:28;;;;;;;4.28;4.07;;;13.50;75.50;;;;;;4953470;28;20050;-84
2021/10/31 01:14:29;;;;;;;4.20;4.00;;;13.50;75.50;;;;;;4964816;28;20111;-84
2021/10/31 01:17:30;;;;;;;4.25;4.05;;;13.50;75.40;;;;;;4970949;28;20035;-84
2021/10/31 01:20:26;;;;;;;4.05;3.85;;;13.50;75.50;;;;;;4914542;29;20620;-84
2021/10/31 01:23:13;;;;;;;4.03;3.83;;;13.50;75.50;;;;;;4915173;29;20032;-84
2021/10/31 01:26:12;;;;;;;4.10;3.90;;;13.50;75.40;;;;;;4911525;29;20043;-84
2021/10/31 01:29:01;;;;;;;4.20;4.00;;;13.50;75.50;;;;;;4916214;29;20400;-84
2021/10/31 01:32:02;;;;;;;3.92;3.72;;;13.50;75.50;;;;;;4928265;29;20040;-84
2021/10/31 01:35:03;;;;;;;4.10;3.90;;;13.50;75.60;;;;;;4875222;29;20049;-84
2021/10/31 01:38:09;;;;;;;4.22;4.03;;;13.50;75.60;;;;;;4874864;29;20426;-84
2021/10/31 01:40:58;;;;;;;3.97;3.78;;;13.40;75.50;;;;;;4874066;29;20143;-84
2021/10/31 01:43:28;;;;;;;4.00;3.80;;;13.50;75.60;;;;;;4875360;29;20142;-85
2021/10/31 01:46:32;;;;;;;4.10;3.90;;;13.40;75.60;;;;;;4874767;29;20052;-84
2021/10/31 01:49:16;;;;;;;4.68;4.38;;;13.40;75.70;;;;;;4814922;29;20035;-85
2021/10/31 01:51:59;;;;;;;4.05;3.85;;;13.40;75.70;;;;;;4808023;29;20501;-84
2021/10/31 01:54:34;;;;;;;4.00;3.80;;;13.40;75.80;;;;;;4822263;29;20038;-84
2021/10/31 01:57:01;;;;;;;3.78;3.58;;;13.40;75.80;;;;;;4798679;29;20072;-84
2021/10/31 01:59:29;;;;;;;4.07;3.88;;;13.40;75.90;;;;;;4825353;29;20046;-85
2021/10/31 02:01:56;;;;;;;3.65;3.45;;;13.40;75.90;;;;;;4814491;29;20348;-84
2021/10/31 02:04:23;;;;;;;3.63;3.42;;;13.40;75.90;;;;;;4798557;29;20046;-84
2021/10/31 02:06:51;;;;;;;3.58;3.40;;;13.40;75.90;;;;;;4813792;29;20415;-84
2021/10/31 02:09:19;;;;;;;3.85;3.55;;;13.40;75.90;;;;;;4850181;29;20049;-84
2021/10/31 02:11:45;;;;;;;3.40;3.30;;;13.40;76.00;;;;;;4860133;29;20056;-84
2021/10/31 02:14:13;;;;;;;3.58;3.35;;;13.40;76.20;;;;;;4890430;29;20051;-85
2021/10/31 02:16:39;;;;;;;3.47;3.33;;;13.40;76.00;;;;;;4874776;29;20548;-85
2021/10/31 02:19:08;;;;;;;3.58;3.38;;;13.40;76.00;;;;;;4876917;29;20040;-84
2021/10/31 02:21:35;;;;;;;3.30;3.20;;;13.40;76.10;;;;;;4876416;29;20040;-84
2021/10/31 02:24:02;;;;;;;3.42;3.33;;;13.50;76.90;;;;;;4888313;28;20065;-85
2021/10/31 02:26:28;;;;;;;3.45;3.33;;;13.50;76.20;;;;;;4964659;28;20041;-84
2021/10/31 02:28:54;;;;;;;3.50;3.38;;;13.50;76.90;;;;;;4967341;28;20042;-85
2021/10/31 02:31:21;;;;;;;3.80;3.60;;;13.50;76.20;;;;;;4967625;28;20047;-84
2021/10/31 02:33:47;;;;;;;3.45;3.30;;;13.50;76.20;;;;;;4966088;28;20035;-84
2021/10/31 02:36:13;;;;;;;3.47;3.35;;;13.50;76.20;;;;;;4967428;28;20062;-84
2021/10/31 02:38:39;;;;;;;3.30;3.20;;;13.50;76.30;;;;;;4971499;28;20031;-84
2021/10/31 02:41:05;;;;;;;3.50;3.40;;;13.50;76.30;;;;;;4967532;28;20050;-84
2021/10/31 02:43:32;;;;;;;3.70;3.50;;;13.50;76.40;;;;;;4966584;28;20038;-84
2021/10/31 02:45:58;;;;;;;3.83;3.63;;;13.40;76.30;;;;;;4967423;28;20049;-84
2021/10/31 02:48:24;;;;;;;4.25;4.05;;;13.40;76.40;;;;;;4969339;28;20030;-84
2021/10/31 02:50:50;;;;;;;3.72;3.53;;;13.40;76.50;;;;;;4951501;28;20043;-84
2021/10/31 02:53:25;;;;;;;3.50;3.40;;;13.40;76.60;;;;;;4958817;28;20278;-85
2021/10/31 02:56:10;;;;;;;3.85;3.65;;;13.40;76.70;;;;;;4953713;28;20043;-85
2021/10/31 02:58:48;;;;;;;3.60;3.40;;;13.30;76.70;;;;;;4967134;28;20041;-84
2021/10/31 03:01:15;;;;;;;3.63;3.42;;;13.40;76.80;;;;;;4948788;28;20051;-84
2021/10/31 03:03:41;;;;;;;3.35;3.25;;;13.40;76.80;;;;;;4957213;28;20038;-84
2021/10/31 03:06:07;;;;;;;3.35;3.22;;;13.40;76.80;;;;;;4966329;28;20475;-85
2021/10/31 03:08:33;;;;;;;3.33;3.22;;;13.40;76.80;;;;;;4969891;28;20031;-85
2021/10/31 03:11:08;;;;;;;3.63;3.42;;;13.40;76.70;;;;;;4953490;28;20062;-84
2021/10/31 03:13:34;;;;;;;4.55;4.15;;;13.40;76.80;;;;;;4969145;28;20027;-84
2021/10/31 03:16:00;;;;;;;14.88;4.10;;;13.40;76.80;;;;;;4970584;28;20491;-84
2021/10/31 03:18:26;;;;;;;4.43;4.22;;;13.40;76.80;;;;;;4971026;28;20031;-84
2021/10/31 03:20:52;;;;;;;3.97;3.78;;;13.40;76.80;;;;;;4971880;28;20038;-85
2021/10/31 03:23:19;;;;;;;3.83;3.63;;;13.40;76.80;;;;;;4973729;28;20039;-85
2021/10/31 03:25:45;;;;;;;6.10;4.30;;;13.50;76.80;;;;;;4952424;28;20047;-85
2021/10/31 03:28:11;;;;;;;3.92;3.72;;;13.50;76.80;;;;;;4951276;28;20043;-83
2021/10/31 03:30:37;;;;;;;4.22;4.03;;;13.40;76.80;;;;;;4955221;28;20038;-87
2021/10/31 03:33:03;;;;;;;3.67;3.50;;;13.50;76.80;;;;;;4970562;28;20042;-87
2021/10/31 03:35:29;;;;;;;3.92;3.63;;;13.50;76.80;;;;;;4972612;28;20050;-87
2021/10/31 03:37:56;;;;;;;4.00;3.80;;;13.50;76.80;;;;;;4972394;28;20030;-86
2021/10/31 03:40:22;;;;;;;3.72;3.55;;;13.50;76.90;;;;;;4972225;28;20034;-87
2021/10/31 03:42:48;;;;;;;3.45;3.33;;;13.50;76.90;;;;;;4972884;28;20031;-86
2021/10/31 03:45:15;;;;;;;3.20;3.10;;;13.50;76.90;;;;;;4956410;28;20047;-86
2021/10/31 03:47:48;;;;;;;3.20;3.10;;;13.50;77.00;;;;;;4973280;28;20035;-87
2021/10/31 03:50:15;;;;;;;5.93;3.10;;;13.40;77.00;;;;;;4974094;28;20179;-87
2021/10/31 03:52:42;;;;;;;3.63;3.45;;;13.40;77.10;;;;;;4973824;28;20029;-86
2021/10/31 03:55:08;;;;;;;3.70;3.50;;;13.40;77.20;;;;;;4973711;28;20038;-87
2021/10/31 03:57:36;;;;;;;3.38;3.28;;;13.30;77.20;;;;;;4973694;28;20031;-86
2021/10/31 04:00:06;;;;;;;3.33;3.22;;;13.40;77.30;;;;;;4956336;28;20043;-81
2021/10/31 04:02:32;;;;;;;3.35;3.25;;;13.30;77.30;;;;;;4990236;28;20054;-87
2021/10/31 04:04:58;;;;;;;3.30;3.20;;;13.30;77.30;;;;;;4973002;28;20042;-86
2021/10/31 04:07:24;;;;;;;3.80;3.60;;;13.30;77.30;;;;;;4971849;28;20041;-87
2021/10/31 04:09:51;;;;;;;3.25;3.15;;;13.30;77.30;;;;;;4993533;28;20045;-85
2021/10/31 04:12:17;;;;;;;3.38;3.28;;;13.30;77.30;;;;;;4987114;28;20038;-87
2021/10/31 04:14:43;;;;;;;3.58;3.38;;;13.30;77.30;;;;;;4973546;28;20023;-87
2021/10/31 04:17:09;;;;;;;3.42;3.33;;;13.30;77.40;;;;;;4970453;28;20480;-87
2021/10/31 04:19:35;;;;;;;3.17;3.08;;;13.30;77.30;;;;;;4973555;28;20038;-87
2021/10/31 04:22:01;;;;;;;4.00;3.40;;;13.30;77.30;;;;;;4971184;28;20403;-87
2021/10/31 04:24:28;;;;;;;3.05;2.95;;;13.30;77.30;;;;;;4970237;28;20050;-87
2021/10/31 04:26:54;;;;;;;3.17;3.08;;;13.30;77.40;;;;;;4971986;28;20051;-87
2021/10/31 04:29:20;;;;;;;3.25;3.05;;;13.30;77.40;;;;;;4973262;28;20031;-87
2021/10/31 04:31:46;;;;;;;3.15;3.05;;;13.30;77.40;;;;;;4971038;28;20049;-87
2021/10/31 04:34:12;;;;;;;3.38;3.28;;;13.30;77.40;;;;;;4952133;28;20039;-87
2021/10/31 04:36:38;;;;;;;3.47;3.33;;;13.30;77.40;;;;;;4966487;28;20491;-87
2021/10/31 04:39:06;;;;;;;3.38;3.28;;;13.30;77.40;;;;;;4973444;28;20027;-88
2021/10/31 04:41:32;;;;;;;3.33;3.22;;;13.30;77.40;;;;;;4974795;28;20496;-87
2021/10/31 04:43:58;;;;;;;3.40;3.30;;;13.30;77.50;;;;;;4970949;28;20038;-88
2021/10/31 04:46:24;;;;;;;3.30;3.20;;;13.30;77.50;;;;;;4967999;28;20050;-88
2021/10/31 04:48:50;;;;;;;3.75;3.55;;;13.30;77.50;;;;;;4972914;28;20019;-88
2021/10/31 04:51:16;;;;;;;3.47;3.38;;;13.30;77.50;;;;;;4973091;28;20034;-89
2021/10/31 04:53:43;;;;;;;3.35;3.25;;;13.30;77.50;;;;;;4972878;28;20043;-89
2021/10/31 04:56:09;;;;;;;3.40;3.30;;;13.30;77.50;;;;;;4971617;28;20054;-88
2021/10/31 04:58:35;;;;;;;3.35;3.25;;;13.30;77.50;;;;;;4953122;28;20540;-88
2021/10/31 05:01:02;;;;;;;3.35;3.22;;;13.30;77.50;;;;;;4970395;28;20031;-88
2021/10/31 05:03:28;;;;;;;3.20;3.10;;;13.30;77.50;;;;;;4971780;28;20035;-89
2021/10/31 05:05:54;;;;;;;3.80;3.60;;;13.30;77.40;;;;;;4973852;28;20039;-88
2021/10/31 05:08:20;;;;;;;3.40;3.30;;;13.30;77.40;;;;;;4973578;28;20049;-90
2021/10/31 05:10:46;;;;;;;3.60;3.40;;;13.30;77.40;;;;;;4973821;28;20035;-89
2021/10/31 05:13:13;;;;;;;3.50;3.40;;;13.30;77.40;;;;;;4966821;28;20043;-89
2021/10/31 05:15:39;;;;;;;12.85;3.90;;;13.30;77.40;;;;;;4972057;28;20046;-89
2021/10/31 05:18:06;;;;;;;3.25;3.15;;;13.30;77.50;;;;;;4970716;28;20039;-89
2021/10/31 05:20:32;;;;;;;3.33;3.22;;;13.30;77.50;;;;;;4974476;28;20050;-89
2021/10/31 05:22:58;;;;;;;3.75;3.55;;;13.20;77.40;;;;;;4971305;28;20070;-89
2021/10/31 05:25:24;;;;;;;4.20;4.00;;;13.20;77.50;;;;;;4971242;28;20027;-89
2021/10/31 05:27:51;;;;;;;3.85;3.65;;;13.20;77.60;;;;;;4953217;28;20049;-90
2021/10/31 05:30:17;;;;;;;4.00;3.80;;;13.20;77.60;;;;;;4954593;28;20105;-90
2021/10/31 05:32:45;;;;;;;3.70;3.50;;;13.20;77.70;;;;;;4924456;28;20050;-90
2021/10/31 05:35:12;;;;;;;3.80;3.60;;;13.10;77.70;;;;;;4951702;28;20051;-89
2021/10/31 05:37:44;;;;;;;3.90;3.70;;;13.20;77.70;;;;;;4950516;28;20066;-90
2021/10/31 05:40:12;;;;;;;3.83;3.63;;;13.10;77.70;;;;;;4966098;28;20475;-90
2021/10/31 05:42:39;;;;;;;3.80;3.60;;;13.10;77.70;;;;;;4954125;28;20388;-89
2021/10/31 05:45:07;;;;;;;3.80;3.60;;;13.10;77.70;;;;;;4952384;28;20046;-89
2021/10/31 05:47:40;;;;;;;3.80;3.60;;;13.10;77.70;;;;;;4972393;28;20038;-88
2021/10/31 05:50:08;;;;;;;4.25;4.05;;;13.10;77.70;;;;;;4966151;28;20496;-89
2021/10/31 05:52:34;;;;;;;3.92;3.63;;;13.10;77.80;;;;;;4967743;28;20062;-90
2021/10/31 05:55:00;;;;;;;3.80;3.60;;;13.10;77.80;;;;;;4970995;28;20035;-90
2021/10/31 05:57:27;;;;;;;3.70;3.50;;;13.10;77.70;;;;;;4971178;28;20023;-90
2021/10/31 05:59:54;;;;;;;3.70;3.50;;;13.10;77.70;;;;;;4970420;28;20050;-90
2021/10/31 06:02:20;;;;;;;3.70;3.50;;;13.10;77.70;;;;;;4972149;28;20050;-90
2021/10/31 06:04:46;;;;;;;3.58;3.42;;;13.10;77.70;;;;;;4977859;28;20034;-91
2021/10/31 06:07:13;;;;;;;3.50;3.33;;;13.10;77.70;;;;;;4980822;28;20302;-89
2021/10/31 06:09:39;;;;;;;3.50;3.40;;;13.10;77.70;;;;;;4971693;28;20026;-90
2021/10/31 06:12:06;;;;;;;3.50;3.33;;;13.10;77.70;;;;;;4970682;28;20042;-90
2021/10/31 06:14:33;;;;;;;3.65;3.47;;;13.10;77.70;;;;;;4973627;28;20037;-90
2021/10/31 06:16:59;;;;;;;3.38;3.28;;;13.20;78.50;;;;;;4981584;28;20018;-89
2021/10/31 06:19:26;;;;;;;3.80;3.60;;;13.10;77.70;;;;;;4986822;28;20034;-94
2021/10/31 06:21:52;;;;;;;4.13;3.92;;;13.10;77.80;;;;;;4969353;28;20046;-91
2021/10/31 06:24:18;;;;;;;3.92;3.72;;;13.10;77.80;;;;;;4970146;28;20039;-88
2021/10/31 06:26:44;;;;;;;3.53;3.38;;;13.10;77.80;;;;;;4971470;28;20392;-90
2021/10/31 06:29:12;;;;;;;3.47;3.38;;;13.10;77.80;;;;;;4972421;28;20026;-90
2021/10/31 06:31:38;;;;;;;3.50;3.40;;;13.20;77.90;;;;;;4970818;28;20031;-90
2021/10/31 06:34:04;;;;;;;3.40;3.30;;;13.10;77.80;;;;;;4970760;28;20057;-90
2021/10/31 06:36:30;;;;;;;4.88;4.68;;;13.20;77.80;;;;;;4971592;28;20057;-90
2021/10/31 06:38:57;;;;;;;3.78;3.58;;;13.20;77.90;;;;;;4970392;28;20026;-90
2021/10/31 06:41:23;;;;;;;3.72;3.53;;;13.20;77.90;;;;;;4971937;28;20047;-85
2021/10/31 06:43:49;;;;;;;3.88;3.67;;;13.20;77.90;;;;;;4968415;28;20031;-85
2021/10/31 06:46:16;;;;;;;3.83;3.63;;;13.20;78.70;;;;;;4970043;28;20129;-88
2021/10/31 06:48:42;;;;;;;5.30;5.10;;;13.20;77.90;;;;;;4954824;28;20031;-88
2021/10/31 06:51:08;;;;;;;3.38;3.28;;;13.20;77.90;;;;;;4972761;28;20051;-89
2021/10/31 06:53:34;;;;;;;3.85;3.65;;;13.20;77.90;;;;;;4982456;28;20491;-90
2021/10/31 06:56:00;;;;;;;3.70;3.50;;;13.20;77.90;;;;;;4966767;28;20035;-93
2021/10/31 06:58:27;;;;;;;12.57;11.98;;;13.20;77.90;;;;;;4981259;28;20248;-94
2021/10/31 07:00:53;;;;;;;3.63;3.42;;;13.20;78.00;;;;;;4979892;28;20046;-92
2021/10/31 07:03:19;;;;;;;3.80;3.60;;;13.20;78.10;;;;;;4953085;28;20047;-91
2021/10/31 07:05:45;;;;;;;3.38;3.28;;;13.20;78.10;;;;;;4972917;28;20031;-92
2021/10/31 07:08:11;;;;;;;3.70;3.50;;;13.20;78.10;;;;;;4979388;28;20384;-92
2021/10/31 07:10:38;;;;;;;3.88;3.67;;;13.20;78.10;;;;;;4958813;28;20061;-91
2021/10/31 07:13:04;;;;;;;3.80;3.60;;;13.20;78.10;;;;;;4958827;28;20047;-90
2021/10/31 07:15:30;;;;;;;3.78;3.58;;;13.20;78.10;;;;;;4959759;28;20050;-93
2021/10/31 07:17:57;;;;;;;3.45;3.35;;;13.30;78.10;;;;;;4959423;28;20034;-90
2021/10/31 07:20:24;;;;;;;3.55;3.40;;;13.30;78.10;;;;;;4957927;28;20095;-90
2021/10/31 07:22:52;;;;;;;3.30;3.20;;;13.30;78.00;;;;;;4957487;28;20098;-90
2021/10/31 07:25:19;;;;;;;3.50;3.40;;;13.40;77.90;;;;;;4956523;28;20059;-91
2021/10/31 07:27:46;;;;;;;3.30;3.20;;;13.40;77.90;;;;;;4976105;28;20042;-93
2021/10/31 07:30:12;;;;;;;3.40;3.30;;;13.50;77.90;;;;;;4958398;28;20035;-93
2021/10/31 07:32:38;;;;;;;3.70;3.50;;;13.50;77.80;;;;;;4960223;28;20051;-89
2021/10/31 07:35:06;;;;;;;4.00;3.80;;;13.50;77.70;;;;;;4972483;28;20058;-88
2021/10/31 07:37:33;;;;;;;3.90;3.70;;;13.60;77.80;;;;;;4981999;28;20286;-86
2021/10/31 07:40:00;;;;;;;3.92;3.72;;;13.70;77.70;;;;;;4977257;28;20022;-87
2021/10/31 07:42:30;;;;;;;4.00;3.78;;;13.80;77.60;;;;;;4957649;28;20062;-86
2021/10/31 07:44:59;;;;;;;3.85;3.65;;;13.90;77.40;;;;;;4958117;28;20045;-82
2021/10/31 07:47:26;;;;;;;4.07;3.88;;;14.00;77.30;;;;;;4972528;28;20039;-84
2021/10/31 07:49:52;;;;;;;3.90;3.70;;;14.10;77.20;;;;;;4967146;28;20065;-81
2021/10/31 07:52:18;;;;;;;3.92;3.65;;;14.20;77.20;;;;;;4973077;28;20026;-82
2021/10/31 07:54:45;;;;;;;4.03;3.83;;;14.30;77.20;;;;;;4955068;28;20039;-82
2021/10/31 07:57:12;;;;;;;3.83;3.63;;;14.40;77.10;;;;;;4976209;28;20034;-83
2021/10/31 07:59:38;;;;;;;3.70;3.50;;;14.50;77.00;;;;;;4970937;28;20034;-84
2021/10/31 08:02:05;;;;;;;3.80;3.60;;;14.60;76.90;;;;;;4955456;28;20054;-86
2021/10/31 08:04:32;;;;;;;3.95;3.75;;;14.60;76.80;;;;;;4982657;28;20026;-87
2021/10/31 08:06:58;;;;;;;3.90;3.70;;;14.60;76.80;;;;;;4965624;28;20064;-88
2021/10/31 08:09:24;;;;;;;3.85;3.65;;;14.70;76.90;;;;;;4956101;28;20039;-86
2021/10/31 08:11:50;;;;;;;3.97;3.78;;;14.70;76.80;;;;;;4970741;28;20034;-86
2021/10/31 08:14:16;;;;;;;3.95;3.75;;;14.80;76.80;;;;;;4972955;28;20488;-87
2021/10/31 08:16:42;;;;;;;3.88;3.67;;;14.80;76.70;;;;;;4954967;28;20034;-88
2021/10/31 08:19:09;;;;;;;3.88;3.67;;;14.90;76.70;;;;;;4973689;28;20038;-94
2021/10/31 08:21:38;;;;;;;4.18;3.97;;;15.00;77.60;;;;;;4957118;28;20043;-86
2021/10/31 08:24:05;;;;;;;3.75;3.55;;;15.00;76.70;;;;;;4973361;28;20034;-90
2021/10/31 08:26:31;;;;;;;3.80;3.60;;;15.00;76.70;;;;;;4987253;28;20521;-89
2021/10/31 08:29:00;;;;;;;4.20;4.00;;;15.10;76.70;;;;;;4976748;28;20487;-88
2021/10/31 08:31:28;;;;;;;3.83;3.63;;;15.20;76.70;;;;;;4969813;28;20034;-84
2021/10/31 08:33:57;;;;;;;4.07;3.88;;;15.20;76.60;;;;;;4972018;28;20050;-86
2021/10/31 08:36:23;;;;;;;4.20;3.90;;;15.30;76.70;;;;;;4968156;28;20042;-87
2021/10/31 08:38:50;;;;;;;3.85;3.65;;;15.30;76.80;;;;;;4970034;28;20045;-84
2021/10/31 08:41:20;;;;;;;3.92;3.72;;;15.40;76.90;;;;;;4973095;28;20041;-86
2021/10/31 08:43:46;;;;;;;4.38;4.10;;;15.40;76.90;;;;;;4954116;28;20057;-84
2021/10/31 08:46:12;;;;;;;3.75;3.55;;;15.50;76.90;;;;;;4970529;28;20031;-83
2021/10/31 08:48:39;;;;;;;3.90;3.70;;;15.50;76.90;;;;;;4971175;28;20034;-85
2021/10/31 08:51:06;;;;;;;4.50;4.20;;;15.60;77.00;;;;;;4971029;28;20034;-83
2021/10/31 08:53:32;;;;;;;4.47;4.28;;;15.60;77.00;;;;;;4955711;28;20065;-85
2021/10/31 08:55:58;;;;;;;4.25;4.05;;;15.60;77.00;;;;;;4971559;28;20391;-84
2021/10/31 08:58:25;;;;;;;4.10;3.90;;;15.60;77.10;;;;;;4972089;28;20034;-83
2021/10/31 09:00:51;;;;;;;3.90;3.70;;;15.70;77.10;;;;;;4969525;28;20424;-84
2021/10/31 09:03:18;;;;;;;4.00;3.80;;;15.70;77.10;;;;;;4971385;28;20058;-83
2021/10/31 09:05:44;;;;;;;4.00;3.80;;;15.70;77.10;;;;;;4969283;28;20046;-89
2021/10/31 09:08:10;;;;;;;3.90;3.70;;;15.70;77.10;;;;;;4972904;28;20042;-86
2021/10/31 09:10:40;;;;;;;4.05;3.85;;;15.70;77.10;;;;;;4953618;28;20042;-86
2021/10/31 09:13:06;;;;;;;4.05;3.85;;;15.70;77.20;;;;;;4953782;28;20062;-85
2021/10/31 09:15:33;;;;;;;4.07;3.88;;;15.70;77.20;;;;;;4953584;28;20049;-88
2021/10/31 09:17:59;;;;;;;4.00;3.80;;;15.70;77.30;;;;;;4954137;28;20055;-85
2021/10/31 09:20:26;;;;;;;4.40;4.20;;;15.70;77.30;;;;;;4969709;28;20478;-87
2021/10/31 09:22:58;;;;;;;4.25;4.05;;;15.70;77.30;;;;;;4951455;28;20061;-89
2021/10/31 09:25:25;;;;;;;3.83;3.63;;;15.80;77.40;;;;;;4951564;28;20383;-90
2021/10/31 09:27:53;;;;;;;4.20;4.00;;;15.80;77.40;;;;;;4970686;28;20042;-90
2021/10/31 09:30:20;;;;;;;4.13;3.92;;;15.80;77.40;;;;;;4968438;28;20027;-85
2021/10/31 09:32:49;;;;;;;4.05;3.85;;;15.80;77.40;;;;;;4970397;28;20027;-85
2021/10/31 09:35:19;;;;;;;4.18;3.97;;;15.90;77.30;;;;;;4969926;28;20064;-87
2021/10/31 09:37:47;;;;;;;4.25;4.05;;;15.90;77.30;;;;;;4969972;28;20137;-86
2021/10/31 09:40:14;;;;;;;4.20;4.00;;;15.90;77.30;;;;;;4972767;28;20026;-86
2021/10/31 09:42:41;;;;;;;4.10;3.90;;;16.00;77.40;;;;;;4959314;28;20538;-89
2021/10/31 09:45:08;;;;;;;3.92;3.72;;;16.00;77.30;;;;;;4974842;28;20027;-91
2021/10/31 09:47:34;;;;;;;4.07;3.88;;;16.00;77.40;;;;;;4968954;28;20031;-86
2021/10/31 09:50:00;;;;;;;3.90;3.70;;;16.10;77.40;;;;;;4979532;28;20023;-86
2021/10/31 09:52:27;;;;;;;3.83;3.63;;;16.10;77.40;;;;;;4967754;28;20039;-86
2021/10/31 09:54:53;;;;;;;4.00;3.80;;;16.10;77.40;;;;;;4967962;28;20045;-85
2021/10/31 09:57:19;;;;;;;3.97;3.78;;;16.10;77.40;;;;;;4968779;28;20034;-87
2021/10/31 09:59:58;;;;;;;4.05;3.85;;;16.20;77.50;;;;;;4949186;28;20035;-87
2021/10/31 10:02:50;;;;;;;3.97;3.78;;;16.20;77.50;;;;;;4984566;28;20042;-86
2021/10/31 10:05:21;;;;;;;3.95;3.75;;;16.20;77.50;;;;;;4956777;28;20558;-88
2021/10/31 10:08:07;;;;;;;4.05;3.85;;;16.30;77.50;;;;;;4968760;28;20047;-88
2021/10/31 10:10:47;;;;;;;3.83;3.63;;;16.30;77.50;;;;;;4965845;28;20030;-87
2021/10/31 10:13:24;;;;;;;3.88;3.67;;;16.30;77.50;;;;;;4968054;28;20034;-87
2021/10/31 10:15:51;;;;;;;4.18;3.97;;;16.40;77.50;;;;;;4966786;28;20058;-86
2021/10/31 10:18:31;;;;;;;3.92;3.72;;;16.40;77.40;;;;;;4973062;28;20407;-86
2021/10/31 10:21:17;;;;;;;4.35;4.15;;;16.50;77.40;;;;;;4951037;28;20400;-86
2021/10/31 10:23:47;;;;;;;4.47;4.28;;;16.50;77.30;;;;;;4968708;28;20055;-86
2021/10/31 10:26:14;;;;;;;4.35;4.15;;;16.60;77.30;;;;;;4968719;28;20018;-86
2021/10/31 10:28:40;;;;;;;4.05;3.85;;;16.60;77.30;;;;;;4966977;28;20031;-85
2021/10/31 10:31:22;;;;;;;4.03;3.83;;;16.70;77.20;;;;;;4963197;28;20034;-85
2021/10/31 10:33:50;;;;;;;4.10;3.90;;;16.70;77.20;;;;;;4966963;28;20049;-83
2021/10/31 10:36:17;;;;;;;4.32;4.13;;;16.80;77.10;;;;;;4970182;28;20035;-84
2021/10/31 10:38:47;;;;;;;4.28;4.07;;;16.80;77.10;;;;;;4970679;28;20035;-84
2021/10/31 10:41:36;;;;;;;4.15;3.95;;;16.90;77.10;;;;;;4962699;28;20046;-84
2021/10/31 10:44:16;;;;;;;4.30;4.10;;;16.90;77.20;;;;;;4967741;28;20035;-83
2021/10/31 10:46:43;;;;;;;4.38;4.18;;;16.90;77.20;;;;;;4967641;28;20039;-83
2021/10/31 10:49:11;;;;;;;4.40;4.20;;;16.90;77.20;;;;;;4966759;28;20038;-83
2021/10/31 10:51:37;;;;;;;4.20;4.00;;;16.90;77.20;;;;;;4964217;28;20049;-82
2021/10/31 10:54:11;;;;;;;4.20;4.00;;;16.90;78.00;;;;;;4969609;28;20023;-95
2021/10/31 10:56:38;;;;;;;4.32;4.13;;;16.90;77.30;;;;;;4962803;28;20507;-89
2021/10/31 10:59:04;;;;;;;4.18;3.97;;;16.90;77.30;;;;;;4969285;28;20035;-87
2021/10/31 11:01:30;;;;;;;5.00;4.70;;;16.90;77.40;;;;;;4965998;28;20051;-87
2021/10/31 11:03:56;;;;;;;4.35;4.15;;;16.90;77.40;;;;;;4954031;28;20059;-90
2021/10/31 11:06:26;;;;;;;4.13;3.92;;;16.90;77.40;;;;;;4952183;28;20039;-91
2021/10/31 11:09:12;;;;;;;4.30;4.10;;;17.00;77.50;;;;;;4952275;28;20051;-89
2021/10/31 11:11:38;;;;;;;4.10;3.90;;;16.90;77.60;;;;;;4991458;28;20039;-87
2021/10/31 11:14:04;;;;;;;4.15;3.95;;;16.90;77.60;;;;;;4969602;28;20039;-85
2021/10/31 11:16:30;;;;;;;4.07;3.88;;;16.90;77.60;;;;;;4979697;28;20463;-79
2021/10/31 11:18:56;;;;;;;4.05;3.85;;;16.90;77.70;;;;;;4955408;28;20046;-84
2021/10/31 11:21:23;;;;;;;4.05;3.85;;;16.90;77.70;;;;;;4963692;28;20506;-93
2021/10/31 11:23:49;;;;;;;4.07;3.88;;;16.90;77.80;;;;;;4951956;28;20055;-85
2021/10/31 11:26:15;;;;;;;3.75;3.55;;;16.90;77.80;;;;;;4970277;28;20042;-89
2021/10/31 11:28:41;;;;;;;3.92;3.72;;;16.90;77.90;;;;;;4951248;28;20115;-86
2021/10/31 11:31:07;;;;;;;4.05;3.85;;;16.90;77.90;;;;;;4951630;28;20034;-83
2021/10/31 11:33:34;;;;;;;3.95;3.65;;;16.90;78.10;;;;;;4968378;28;20030;-83
2021/10/31 11:36:01;;;;;;;3.75;3.55;;;16.90;78.10;;;;;;4969716;28;20026;-85
2021/10/31 11:38:29;;;;;;;3.25;3.15;;;16.90;78.10;;;;;;4988063;28;20039;-91
2021/10/31 11:40:56;;;;;;;3.78;3.58;;;16.80;78.10;;;;;;4956133;28;20043;-85
2021/10/31 11:43:24;;;;;;;3.97;3.78;;;16.90;78.20;;;;;;4971724;28;20480;-86
2021/10/31 11:45:51;;;;;;;5.13;4.93;;;16.80;78.20;;;;;;4968874;28;20035;-90
2021/10/31 11:48:22;;;;;;;3.83;3.63;;;16.80;78.20;;;;;;4951580;28;20043;-87
2021/10/31 11:51:04;;;;;;;3.95;3.75;;;16.80;78.30;;;;;;4954644;28;20043;-91
2021/10/31 11:53:41;;;;;;;4.00;3.80;;;16.70;78.40;;;;;;4983001;28;20050;-92
2021/10/31 11:56:26;;;;;;;4.05;3.85;;;16.70;78.60;;;;;;4966533;28;20035;-94
2021/10/31 11:58:59;;;;;;;3.72;3.53;;;16.60;78.70;;;;;;4959409;28;20054;-89
2021/10/31 12:01:39;;;;;;;3.70;3.50;;;16.60;78.70;;;;;;4972068;28;20042;-88
2021/10/31 12:07:48;;;;;;;4.05;3.85;;;16.50;78.80;;;;;;4965154;28;20042;-84
2021/10/31 12:10:28;;;;;;;4.00;3.80;;;16.40;78.70;;;;;;4970317;28;20038;-84
2021/10/31 12:13:07;;;;;;;4.00;3.80;;;16.40;78.90;;;;;;4967183;28;20051;-84
2021/10/31 12:15:33;;;;;;;3.75;3.55;;;16.40;78.90;;;;;;4974252;28;20046;-84
2021/10/31 12:18:02;;;;;;;3.80;3.60;;;16.30;78.90;;;;;;4972190;28;20380;-84
2021/10/31 12:20:48;;;;;;;3.80;3.63;;;16.40;79.00;;;;;;4970926;28;20047;-84
2021/10/31 12:23:19;;;;;;;3.67;3.47;;;16.30;78.90;;;;;;4966686;28;20051;-86
2021/10/31 12:25:45;;;;;;;4.40;4.20;;;16.30;78.90;;;;;;4966579;28;20033;-85
2021/10/31 12:28:38;;;;;;;4.15;3.95;;;16.30;78.90;;;;;;4969226;28;20039;-85
2021/10/31 12:31:25;;;;;;;4.07;3.88;;;16.40;79.00;;;;;;4969572;28;20046;-84
2021/10/31 12:34:04;;;;;;;4.47;4.18;;;16.40;78.90;;;;;;4964661;28;20066;-84
2021/10/31 12:36:33;;;;;;;4.18;3.97;;;16.40;78.90;;;;;;4965233;28;20043;-85
2021/10/31 12:38:59;;;;;;;4.68;4.47;;;16.50;78.80;;;;;;4968579;28;20039;-83
2021/10/31 12:41:33;;;;;;;4.75;4.55;;;16.50;78.80;;;;;;4973824;28;20037;-84
2021/10/31 12:44:09;;;;;;;4.10;3.90;;;16.60;78.90;;;;;;4971336;28;20047;-86
2021/10/31 12:46:35;;;;;;;4.47;4.28;;;16.70;78.40;;;;;;4969960;28;20035;-84
2021/10/31 12:49:03;;;;;;;6.05;5.18;;;16.80;78.40;;;;;;4957207;28;20038;-83
2021/10/31 12:52:07;;;;;;;3.83;3.63;;;16.90;78.20;;;;;;4969644;28;20392;-84
2021/10/31 12:54:35;;;;;;;4.18;3.97;;;17.00;78.00;;;;;;4963383;28;20058;-84
2021/10/31 12:57:06;;;;;;;5.50;5.00;;;17.10;77.80;;;;;;4971741;28;20535;-84
2021/10/31 12:59:32;;;;;;;4.50;4.30;;;17.10;77.70;;;;;;4969507;28;20039;-84
2021/10/31 13:02:08;;;;;;;5.60;5.30;;;17.20;77.80;;;;;;4971148;28;20396;-84